createdAt,value
2022-12-29T00:00:52.129Z,1001.53
2022-12-29T00:01:52.011Z,1001.60
2022-12-29T00:02:52.155Z,1001.56
2022-12-29T00:03:52.027Z,1001.53
2022-12-29T00:04:51.994Z,1001.47
2022-12-29T00:05:51.935Z,1001.43
2022-12-29T00:06:51.980Z,1001.48
2022-12-29T00:07:51.934Z,1001.38
2022-12-29T00:08:51.941Z,1001.32
2022-12-29T00:09:51.888Z,1001.36
2022-12-29T00:10:51.915Z,1001.33
2022-12-29T00:11:51.897Z,1001.35
2022-12-29T00:12:51.879Z,1001.27
2022-12-29T00:13:51.859Z,1001.27
2022-12-29T00:14:51.860Z,1001.29
2022-12-29T00:15:51.865Z,1001.28
2022-12-29T00:16:51.852Z,1001.31
2022-12-29T00:17:51.806Z,1001.28
2022-12-29T00:18:51.807Z,1001.26
2022-12-29T00:19:51.877Z,1001.34
2022-12-29T00:20:51.788Z,1001.27
2022-12-29T00:21:51.767Z,1001.21
2022-12-29T00:22:51.768Z,1001.21
2022-12-29T00:23:51.697Z,1001.17
2022-12-29T00:24:51.702Z,1001.22
2022-12-29T00:25:51.673Z,1001.21
2022-12-29T00:26:51.738Z,1001.20
2022-12-29T00:27:51.653Z,1001.15
2022-12-29T00:28:51.649Z,1001.07
2022-12-29T00:29:51.648Z,1001.11
2022-12-29T00:30:51.675Z,1001.11
2022-12-29T00:31:51.706Z,1001.16
2022-12-29T00:32:51.604Z,1001.18
2022-12-29T00:33:51.598Z,1001.12
2022-12-29T00:34:51.562Z,1001.17
2022-12-29T00:35:51.539Z,1001.15
2022-12-29T00:36:51.560Z,1001.12
2022-12-29T00:37:51.563Z,1001.08
2022-12-29T00:38:51.509Z,1001.15
2022-12-29T00:39:51.486Z,1001.03
2022-12-29T00:40:51.478Z,1001.12
2022-12-29T00:41:51.458Z,1001.11
2022-12-29T00:42:51.458Z,1001.10
2022-12-29T00:43:51.484Z,1001.00
2022-12-29T00:44:51.428Z,1001.06
2022-12-29T00:45:51.434Z,1001.04
2022-12-29T00:46:51.431Z,1001.06
2022-12-29T00:47:51.409Z,1000.93
2022-12-29T00:48:51.408Z,1000.96
2022-12-29T00:49:51.355Z,1000.99
2022-12-29T00:50:51.383Z,1001.10
2022-12-29T00:51:51.352Z,1000.99
2022-12-29T00:52:51.326Z,1000.97
2022-12-29T00:53:51.324Z,1000.92
2022-12-29T00:54:51.351Z,1000.96
2022-12-29T00:55:51.300Z,1000.92
2022-12-29T00:56:51.276Z,1000.87
2022-12-29T00:57:51.270Z,1000.87
2022-12-29T00:58:51.273Z,1000.88
2022-12-29T00:59:51.279Z,1000.90
2022-12-29T01:00:51.267Z,1000.83
2022-12-29T01:01:51.319Z,1000.86
2022-12-29T01:02:51.302Z,1000.85
2022-12-29T01:03:51.192Z,1000.89
2022-12-29T01:04:51.198Z,1000.91
2022-12-29T01:05:51.174Z,1000.84
2022-12-29T01:06:51.179Z,1000.96
2022-12-29T01:07:51.116Z,1000.92
2022-12-29T01:08:51.152Z,1000.96
2022-12-29T01:09:51.151Z,1000.92
2022-12-29T01:10:51.094Z,1000.98
2022-12-29T01:11:51.067Z,1001.02
2022-12-29T01:12:51.073Z,1000.99
2022-12-29T01:13:51.068Z,1000.98
2022-12-29T01:14:51.043Z,1000.96
2022-12-29T01:15:51.069Z,1000.85
2022-12-29T01:16:51.038Z,1000.96
2022-12-29T01:17:51.010Z,1000.92
2022-12-29T01:18:51.031Z,1001.00
2022-12-29T01:19:50.963Z,1000.94
2022-12-29T01:20:50.990Z,1001.01
2022-12-29T01:21:50.933Z,1000.98
2022-12-29T01:22:50.976Z,1001.03
2022-12-29T01:23:50.928Z,1001.00
2022-12-29T01:24:50.953Z,1001.04
2022-12-29T01:25:50.908Z,1001.00
2022-12-29T01:26:50.880Z,1001.01
2022-12-29T01:27:50.880Z,1000.91
2022-12-29T01:28:50.860Z,1000.94
2022-12-29T01:29:50.832Z,1000.94
2022-12-29T01:30:50.830Z,1000.95
2022-12-29T01:31:51.208Z,1000.96
2022-12-29T01:32:50.803Z,1000.91
2022-12-29T01:33:50.806Z,1001.00
2022-12-29T01:34:50.839Z,1000.95
2022-12-29T01:35:50.749Z,1000.90
2022-12-29T01:36:50.775Z,1000.95
2022-12-29T01:37:50.720Z,1000.97
2022-12-29T01:38:50.717Z,1001.04
2022-12-29T01:39:50.775Z,1000.90
2022-12-29T01:40:50.745Z,1000.97
2022-12-29T01:41:50.687Z,1000.94
2022-12-29T01:42:50.691Z,1000.89
2022-12-29T01:43:50.676Z,1000.89
2022-12-29T01:44:50.721Z,1000.92
2022-12-29T01:45:50.685Z,1000.99
2022-12-29T01:46:50.633Z,1000.87
2022-12-29T01:47:50.614Z,1000.88
2022-12-29T01:48:50.589Z,1000.85
2022-12-29T01:49:50.585Z,1000.84
2022-12-29T01:50:50.588Z,1000.77
2022-12-29T01:51:50.572Z,1000.78
2022-12-29T01:52:50.562Z,1000.89
2022-12-29T01:53:50.546Z,1000.81
2022-12-29T01:54:50.508Z,1000.72
2022-12-29T01:55:50.536Z,1000.74
2022-12-29T01:56:50.487Z,1000.81
2022-12-29T01:57:50.493Z,1000.68
2022-12-29T01:58:50.492Z,1000.63
2022-12-29T01:59:50.434Z,1000.63
2022-12-29T02:00:50.532Z,1000.64
2022-12-29T02:01:50.643Z,1000.59
2022-12-29T02:02:50.482Z,1000.58
2022-12-29T02:03:50.411Z,1000.62
2022-12-29T02:04:50.412Z,1000.68
2022-12-29T02:05:50.370Z,1000.65
2022-12-29T02:06:50.357Z,1000.70
2022-12-29T02:07:50.346Z,1000.62
2022-12-29T02:08:50.393Z,1000.54
2022-12-29T02:09:50.337Z,1000.50
2022-12-29T02:10:50.342Z,1000.56
2022-12-29T02:11:50.302Z,1000.51
2022-12-29T02:12:50.290Z,1000.53
2022-12-29T02:13:50.271Z,1000.53
2022-12-29T02:14:50.250Z,1000.59
2022-12-29T02:15:50.255Z,1000.60
2022-12-29T02:16:50.279Z,1000.53
2022-12-29T02:17:50.231Z,1000.53
2022-12-29T02:18:50.244Z,1000.50
2022-12-29T02:19:50.230Z,1000.46
2022-12-29T02:20:50.183Z,1000.46
2022-12-29T02:21:50.142Z,1000.44
2022-12-29T02:22:50.170Z,1000.48
2022-12-29T02:23:50.159Z,1000.43
2022-12-29T02:24:50.135Z,1000.46
2022-12-29T02:25:50.140Z,1000.42
2022-12-29T02:26:50.082Z,1000.35
2022-12-29T02:27:50.079Z,1000.40
2022-12-29T02:28:50.071Z,1000.39
2022-12-29T02:29:50.048Z,1000.40
2022-12-29T02:30:50.051Z,1000.40
2022-12-29T02:31:50.123Z,1000.38
2022-12-29T02:32:50.018Z,1000.37
2022-12-29T02:33:49.991Z,1000.41
2022-12-29T02:34:50.019Z,1000.39
2022-12-29T02:35:49.970Z,1000.41
2022-12-29T02:36:49.997Z,1000.44
2022-12-29T02:37:49.981Z,1000.38
2022-12-29T02:38:49.958Z,1000.32
2022-12-29T02:39:49.909Z,1000.38
2022-12-29T02:40:49.928Z,1000.28
2022-12-29T02:41:49.905Z,1000.32
2022-12-29T02:42:49.879Z,1000.27
2022-12-29T02:43:49.883Z,1000.25
2022-12-29T02:44:49.850Z,1000.21
2022-12-29T02:45:49.934Z,1000.25
2022-12-29T02:46:49.863Z,1000.22
2022-12-29T02:47:49.805Z,1000.16
2022-12-29T02:48:49.834Z,1000.23
2022-12-29T02:49:49.790Z,1000.25
2022-12-29T02:50:49.797Z,1000.30
2022-12-29T02:51:49.774Z,1000.30
2022-12-29T02:52:49.757Z,1000.21
2022-12-29T02:53:49.735Z,1000.30
2022-12-29T02:54:49.768Z,1000.22
2022-12-29T02:55:49.707Z,1000.30
2022-12-29T02:56:49.744Z,1000.34
2022-12-29T02:57:49.701Z,1000.16
2022-12-29T02:58:49.721Z,1000.29
2022-12-29T02:59:49.675Z,1000.25
2022-12-29T03:00:49.713Z,1000.19
2022-12-29T03:01:49.753Z,1000.16
2022-12-29T03:02:49.790Z,1000.19
2022-12-29T03:03:49.612Z,1000.17
2022-12-29T03:04:49.606Z,1000.08
2022-12-29T03:05:49.614Z,1000.09
2022-12-29T03:06:49.602Z,1000.05
2022-12-29T03:07:49.545Z,1000.04
2022-12-29T03:08:49.595Z,1000.06
2022-12-29T03:09:49.552Z,1000.04
2022-12-29T03:10:49.550Z,1000.02
2022-12-29T03:11:49.504Z,1000.00
2022-12-29T03:12:49.534Z,999.97
2022-12-29T03:13:49.462Z,1000.03
2022-12-29T03:14:49.514Z,1000.00
2022-12-29T03:15:49.469Z,1000.01
2022-12-29T03:16:49.488Z,999.95
2022-12-29T03:17:49.424Z,999.92
2022-12-29T03:18:49.449Z,999.87
2022-12-29T03:19:49.412Z,999.91
2022-12-29T03:20:49.409Z,999.85
2022-12-29T03:21:49.379Z,999.83
2022-12-29T03:22:49.388Z,999.81
2022-12-29T03:23:49.387Z,999.87
2022-12-29T03:24:49.349Z,999.82
2022-12-29T03:25:49.324Z,999.80
2022-12-29T03:26:49.300Z,999.79
2022-12-29T03:27:49.360Z,999.87
2022-12-29T03:28:49.291Z,999.80
2022-12-29T03:29:49.298Z,999.84
2022-12-29T03:30:49.313Z,999.77
2022-12-29T03:31:49.243Z,999.80
2022-12-29T03:32:49.245Z,999.83
2022-12-29T03:33:49.289Z,999.84
2022-12-29T03:34:49.228Z,999.79
2022-12-29T03:35:49.251Z,999.75
2022-12-29T03:36:49.187Z,999.81
2022-12-29T03:37:49.178Z,999.85
2022-12-29T03:38:49.154Z,999.81
2022-12-29T03:39:49.142Z,999.83
2022-12-29T03:40:49.136Z,999.91
2022-12-29T03:41:49.171Z,999.90
2022-12-29T03:42:49.110Z,999.88
2022-12-29T03:43:49.112Z,999.83
2022-12-29T03:44:49.086Z,999.75
2022-12-29T03:45:49.129Z,999.72
2022-12-29T03:46:49.051Z,999.66
2022-12-29T03:47:49.074Z,999.68
2022-12-29T03:48:49.034Z,999.60
2022-12-29T03:49:49.034Z,999.51
2022-12-29T03:50:49.004Z,999.53
2022-12-29T03:51:51.736Z,999.60
2022-12-29T03:52:48.986Z,999.60
2022-12-29T03:53:48.965Z,999.55
2022-12-29T03:54:48.939Z,999.45
2022-12-29T03:55:48.937Z,999.44
2022-12-29T03:56:48.927Z,999.53
2022-12-29T03:57:48.936Z,999.55
2022-12-29T03:58:48.875Z,999.62
2022-12-29T03:59:48.885Z,999.53
2022-12-29T04:00:48.895Z,999.53
2022-12-29T04:01:49.060Z,999.55
2022-12-29T04:02:49.000Z,999.46
2022-12-29T04:03:48.906Z,999.53
2022-12-29T04:04:48.807Z,999.47
2022-12-29T04:05:48.831Z,999.47
2022-12-29T04:06:48.792Z,999.46
2022-12-29T04:07:48.777Z,999.46
2022-12-29T04:08:48.788Z,999.48
2022-12-29T04:09:48.772Z,999.42
2022-12-29T04:10:48.721Z,999.43
2022-12-29T04:11:48.737Z,999.41
2022-12-29T04:12:48.695Z,999.42
2022-12-29T04:13:48.699Z,999.41
2022-12-29T04:14:48.673Z,999.43
2022-12-29T04:15:48.753Z,999.41
2022-12-29T04:16:48.680Z,999.34
2022-12-29T04:17:48.660Z,999.40
2022-12-29T04:18:48.649Z,999.35
2022-12-29T04:19:48.644Z,999.29
2022-12-29T04:20:48.635Z,999.28
2022-12-29T04:21:48.679Z,999.25
2022-12-29T04:22:48.601Z,999.35
2022-12-29T04:23:48.564Z,999.22
2022-12-29T04:24:48.575Z,999.27
2022-12-29T04:25:48.530Z,999.30
2022-12-29T04:26:48.559Z,999.30
2022-12-29T04:27:48.540Z,999.29
2022-12-29T04:28:48.490Z,999.26
2022-12-29T04:29:48.494Z,999.43
2022-12-29T04:30:48.566Z,999.26
2022-12-29T04:31:48.525Z,999.27
2022-12-29T04:32:48.464Z,999.31
2022-12-29T04:33:48.467Z,999.39
2022-12-29T04:34:48.442Z,999.35
2022-12-29T04:35:48.413Z,999.34
2022-12-29T04:36:48.411Z,999.52
2022-12-29T04:37:48.394Z,999.45
2022-12-29T04:38:48.387Z,999.50
2022-12-29T04:39:48.378Z,999.59
2022-12-29T04:40:48.333Z,999.54
2022-12-29T04:41:48.369Z,999.59
2022-12-29T04:42:48.322Z,999.65
2022-12-29T04:43:48.328Z,999.71
2022-12-29T04:44:48.280Z,999.65
2022-12-29T04:45:48.280Z,999.58
2022-12-29T04:46:48.325Z,999.70
2022-12-29T04:47:48.382Z,999.76
2022-12-29T04:48:48.254Z,999.76
2022-12-29T04:49:48.229Z,999.64
2022-12-29T04:50:48.238Z,999.76
2022-12-29T04:51:48.209Z,999.72
2022-12-29T04:52:48.196Z,999.79
2022-12-29T04:53:48.181Z,999.76
2022-12-29T04:54:48.148Z,999.74
2022-12-29T04:55:48.149Z,999.76
2022-12-29T04:56:48.138Z,999.69
2022-12-29T04:57:48.147Z,999.63
2022-12-29T04:58:48.089Z,999.63
2022-12-29T04:59:48.109Z,999.80
2022-12-29T05:00:48.069Z,999.68
2022-12-29T05:01:48.179Z,999.54
2022-12-29T05:02:48.289Z,999.52
2022-12-29T05:03:48.113Z,999.62
2022-12-29T05:04:48.046Z,999.45
2022-12-29T05:05:48.071Z,999.59
2022-12-29T05:06:48.047Z,999.65
2022-12-29T05:07:48.057Z,999.59
2022-12-29T05:08:47.998Z,999.70
2022-12-29T05:09:48.005Z,999.59
2022-12-29T05:10:47.964Z,999.60
2022-12-29T05:11:47.962Z,999.59
2022-12-29T05:12:47.944Z,999.57
2022-12-29T05:13:47.974Z,999.57
2022-12-29T05:14:47.917Z,999.42
2022-12-29T05:15:47.961Z,999.61
2022-12-29T05:16:47.867Z,999.65
2022-12-29T05:18:02.636Z,999.66
2022-12-29T05:18:47.893Z,999.73
2022-12-29T05:19:47.862Z,999.78
2022-12-29T05:20:47.839Z,999.83
2022-12-29T05:21:47.814Z,999.78
2022-12-29T05:22:47.829Z,999.90
2022-12-29T05:23:47.814Z,999.82
2022-12-29T05:24:47.787Z,999.68
2022-12-29T05:25:47.766Z,999.75
2022-12-29T05:26:47.776Z,999.81
2022-12-29T05:27:47.735Z,999.81
2022-12-29T05:28:47.770Z,999.97
2022-12-29T05:29:47.735Z,999.88
2022-12-29T05:30:47.675Z,999.81
2022-12-29T05:31:47.749Z,999.81
2022-12-29T05:32:47.655Z,999.76
2022-12-29T05:33:47.664Z,999.80
2022-12-29T05:34:47.643Z,999.87
2022-12-29T05:35:47.634Z,999.79
2022-12-29T05:36:47.621Z,999.76
2022-12-29T05:37:47.607Z,999.86
2022-12-29T05:38:47.591Z,999.84
2022-12-29T05:39:47.600Z,999.85
2022-12-29T05:40:47.557Z,999.93
2022-12-29T05:41:47.599Z,999.67
2022-12-29T05:42:47.523Z,999.84
2022-12-29T05:43:47.553Z,999.94
2022-12-29T05:44:47.513Z,999.88
2022-12-29T05:45:47.530Z,1000.00
2022-12-29T05:46:47.600Z,999.99
2022-12-29T05:47:47.516Z,999.97
2022-12-29T05:48:47.495Z,999.87
2022-12-29T05:49:47.445Z,999.95
2022-12-29T05:50:47.454Z,999.93
2022-12-29T05:52:08.455Z,999.95
2022-12-29T05:52:47.466Z,999.98
2022-12-29T05:53:47.475Z,1000.11
2022-12-29T05:54:47.424Z,1000.03
2022-12-29T05:55:49.045Z,999.95
2022-12-29T05:56:47.372Z,1000.06
2022-12-29T05:57:47.384Z,1000.06
2022-12-29T05:58:47.353Z,1000.07
2022-12-29T05:59:47.312Z,1000.07
2022-12-29T06:00:47.298Z,1000.14
2022-12-29T06:01:47.509Z,1000.05
2022-12-29T06:02:47.500Z,999.98
2022-12-29T06:03:48.563Z,1000.03
2022-12-29T06:04:47.283Z,999.85
2022-12-29T06:05:47.283Z,999.90
2022-12-29T06:06:47.223Z,1000.07
2022-12-29T06:07:47.237Z,999.96
2022-12-29T06:08:47.226Z,1000.01
2022-12-29T06:09:47.207Z,1000.06
2022-12-29T06:10:47.170Z,999.95
2022-12-29T06:11:47.154Z,999.93
2022-12-29T06:12:47.198Z,999.95
2022-12-29T06:13:47.173Z,999.94
2022-12-29T06:14:47.148Z,1000.02
2022-12-29T06:15:47.144Z,999.94
2022-12-29T06:16:47.132Z,999.90
2022-12-29T06:17:47.112Z,999.98
2022-12-29T06:18:47.062Z,999.97
2022-12-29T06:19:47.064Z,999.93
2022-12-29T06:20:47.069Z,999.94
2022-12-29T06:21:47.047Z,999.90
2022-12-29T06:22:47.045Z,999.82
2022-12-29T06:23:47.019Z,999.84
2022-12-29T06:24:47.004Z,999.83
2022-12-29T06:25:46.970Z,999.92
2022-12-29T06:26:46.973Z,999.89
2022-12-29T06:27:46.965Z,1000.01
2022-12-29T06:28:46.966Z,999.95
2022-12-29T06:29:46.947Z,1000.08
2022-12-29T06:30:46.937Z,1000.11
2022-12-29T06:31:47.061Z,1000.15
2022-12-29T06:32:46.907Z,1000.20
2022-12-29T06:33:49.850Z,1000.25
2022-12-29T06:34:46.884Z,1000.15
2022-12-29T06:35:47.020Z,1000.17
2022-12-29T06:36:46.865Z,1000.25
2022-12-29T06:37:46.821Z,1000.17
2022-12-29T06:38:46.826Z,1000.25
2022-12-29T06:39:46.811Z,1000.19
2022-12-29T06:40:46.784Z,1000.23
2022-12-29T06:41:46.755Z,1000.27
2022-12-29T06:42:46.775Z,1000.35
2022-12-29T06:43:46.752Z,1000.30
2022-12-29T06:44:46.728Z,1000.22
2022-12-29T06:45:46.769Z,1000.21
2022-12-29T06:46:46.697Z,1000.25
2022-12-29T06:47:46.702Z,1000.27
2022-12-29T06:48:46.699Z,1000.25
2022-12-29T06:49:46.689Z,1000.39
2022-12-29T06:50:46.679Z,1000.41
2022-12-29T06:51:46.635Z,1000.39
2022-12-29T06:52:46.635Z,1000.36
2022-12-29T06:53:46.637Z,1000.44
2022-12-29T06:54:46.594Z,1000.40
2022-12-29T06:55:46.590Z,1000.37
2022-12-29T06:56:46.604Z,1000.35
2022-12-29T06:57:46.587Z,1000.37
2022-12-29T06:58:46.560Z,1000.33
2022-12-29T06:59:46.550Z,1000.33
2022-12-29T07:00:46.576Z,1000.31
2022-12-29T07:01:46.620Z,1000.44
2022-12-29T07:02:46.612Z,1000.29
2022-12-29T07:03:46.470Z,1000.46
2022-12-29T07:04:46.476Z,1000.45
2022-12-29T07:05:46.471Z,1000.42
2022-12-29T07:06:46.499Z,1000.40
2022-12-29T07:07:46.442Z,1000.43
2022-12-29T07:08:46.466Z,1000.43
2022-12-29T07:09:46.435Z,1000.51
2022-12-29T07:10:46.403Z,1000.45
2022-12-29T07:11:46.368Z,1000.56
2022-12-29T07:12:46.397Z,1000.51
2022-12-29T07:13:46.369Z,1000.59
2022-12-29T07:14:46.360Z,1000.45
2022-12-29T07:15:46.320Z,1000.48
2022-12-29T07:16:46.471Z,1000.46
2022-12-29T07:17:46.308Z,1000.51
2022-12-29T07:18:46.312Z,1000.54
2022-12-29T07:19:46.271Z,1000.46
2022-12-29T07:20:46.274Z,1000.61
2022-12-29T07:21:49.043Z,1000.58
2022-12-29T07:22:46.240Z,1000.59
2022-12-29T07:23:46.209Z,1000.61
2022-12-29T07:24:46.217Z,1000.67
2022-12-29T07:25:46.204Z,1000.73
2022-12-29T07:26:46.188Z,1000.69
2022-12-29T07:27:46.206Z,1000.75
2022-12-29T07:28:46.177Z,1000.80
2022-12-29T07:29:46.153Z,1000.76
2022-12-29T07:30:46.120Z,1000.82
2022-12-29T07:31:46.236Z,1000.86
2022-12-29T07:32:46.109Z,1000.85
2022-12-29T07:33:46.116Z,1000.84
2022-12-29T07:34:46.183Z,1000.82
2022-12-29T07:35:46.080Z,1000.80
2022-12-29T07:36:46.073Z,1000.75
2022-12-29T07:37:46.070Z,1000.69
2022-12-29T07:38:46.037Z,1000.73
2022-12-29T07:39:46.013Z,1000.80
2022-12-29T07:40:46.034Z,1000.84
2022-12-29T07:41:46.023Z,1000.87
2022-12-29T07:42:46.006Z,1000.94
2022-12-29T07:43:46.013Z,1000.95
2022-12-29T07:44:46.056Z,1001.04
2022-12-29T07:45:45.971Z,1001.03
2022-12-29T07:46:55.407Z,1001.03
2022-12-29T07:47:46.915Z,1001.07
2022-12-29T07:48:45.951Z,1001.01
2022-12-29T07:49:46.036Z,1001.06
2022-12-29T07:50:45.856Z,1001.05
2022-12-29T07:51:45.885Z,1001.10
2022-12-29T07:52:45.870Z,1001.04
2022-12-29T07:53:45.854Z,1001.11
2022-12-29T07:54:45.857Z,1001.14
2022-12-29T07:55:45.804Z,1001.14
2022-12-29T07:56:45.790Z,1001.21
2022-12-29T07:57:45.837Z,1001.18
2022-12-29T07:58:45.782Z,1001.18
2022-12-29T07:59:45.920Z,1001.23
2022-12-29T08:00:45.725Z,1001.25
2022-12-29T08:01:45.835Z,1001.21
2022-12-29T08:02:45.858Z,1001.18
2022-12-29T08:03:45.760Z,1001.28
2022-12-29T08:04:45.795Z,1001.28
2022-12-29T08:05:45.729Z,1001.33
2022-12-29T08:06:45.670Z,1001.23
2022-12-29T08:07:45.713Z,1001.19
2022-12-29T08:08:45.658Z,1001.19
2022-12-29T08:09:45.718Z,1001.11
2022-12-29T08:10:45.632Z,1001.13
2022-12-29T08:11:45.649Z,1001.12
2022-12-29T08:12:45.717Z,1001.21
2022-12-29T08:13:45.594Z,1001.21
2022-12-29T08:14:45.747Z,1001.24
2022-12-29T08:15:45.599Z,1001.30
2022-12-29T08:16:45.576Z,1001.33
2022-12-29T08:17:45.550Z,1001.31
2022-12-29T08:18:45.528Z,1001.41
2022-12-29T08:19:45.681Z,1001.36
2022-12-29T08:20:47.011Z,1001.38
2022-12-29T08:21:45.504Z,1001.38
2022-12-29T08:22:45.480Z,1001.36
2022-12-29T08:23:45.450Z,1001.31
2022-12-29T08:24:45.573Z,1001.43
2022-12-29T08:25:45.444Z,1001.32
2022-12-29T08:26:45.406Z,1001.35
2022-12-29T08:27:45.423Z,1001.28
2022-12-29T08:28:45.463Z,1001.30
2022-12-29T08:29:45.367Z,1001.23
2022-12-29T08:30:45.451Z,1001.36
2022-12-29T08:31:45.444Z,1001.37
2022-12-29T08:32:45.349Z,1001.39
2022-12-29T08:33:45.319Z,1001.41
2022-12-29T08:34:45.314Z,1001.37
2022-12-29T08:35:45.335Z,1001.31
2022-12-29T08:36:45.284Z,1001.39
2022-12-29T08:37:45.293Z,1001.35
2022-12-29T08:38:45.273Z,1001.43
2022-12-29T08:39:45.259Z,1001.38
2022-12-29T08:40:45.239Z,1001.46
2022-12-29T08:41:45.233Z,1001.47
2022-12-29T08:42:45.197Z,1001.47
2022-12-29T08:43:45.205Z,1001.53
2022-12-29T08:44:45.183Z,1001.52
2022-12-29T08:45:45.197Z,1001.37
2022-12-29T08:46:45.232Z,1001.53
2022-12-29T08:47:45.179Z,1001.51
2022-12-29T08:48:45.127Z,1001.54
2022-12-29T08:49:45.144Z,1001.62
2022-12-29T08:50:45.121Z,1001.54
2022-12-29T08:51:45.083Z,1001.53
2022-12-29T08:52:45.086Z,1001.58
2022-12-29T08:53:45.082Z,1001.58
2022-12-29T08:54:45.084Z,1001.51
2022-12-29T08:55:45.070Z,1001.51
2022-12-29T08:56:45.031Z,1001.49
2022-12-29T08:57:45.045Z,1001.59
2022-12-29T08:58:44.997Z,1001.64
2022-12-29T08:59:44.966Z,1001.59
2022-12-29T09:00:44.954Z,1001.59
2022-12-29T09:01:45.090Z,1001.61
2022-12-29T09:02:45.135Z,1001.66
2022-12-29T09:04:13.655Z,1001.63
2022-12-29T09:04:45.929Z,1001.64
2022-12-29T09:05:44.927Z,1001.65
2022-12-29T09:06:44.878Z,1001.62
2022-12-29T09:07:44.873Z,1001.64
2022-12-29T09:08:44.873Z,1001.57
2022-12-29T09:09:44.863Z,1001.68
2022-12-29T09:10:44.825Z,1001.69
2022-12-29T09:11:44.820Z,1001.74
2022-12-29T09:12:44.819Z,1001.69
2022-12-29T09:13:44.800Z,1001.71
2022-12-29T09:14:44.772Z,1001.74
2022-12-29T09:15:44.856Z,1001.66
2022-12-29T09:16:44.752Z,1001.69
2022-12-29T09:17:44.781Z,1001.76
2022-12-29T09:18:44.741Z,1001.79
2022-12-29T09:19:44.747Z,1001.80
2022-12-29T09:20:44.728Z,1001.91
2022-12-29T09:21:44.741Z,1001.77
2022-12-29T09:22:44.708Z,1001.88
2022-12-29T09:23:44.668Z,1001.96
2022-12-29T09:24:44.648Z,1001.89
2022-12-29T09:25:44.633Z,1001.89
2022-12-29T09:26:47.058Z,1001.97
2022-12-29T09:27:44.656Z,1002.06
2022-12-29T09:28:44.630Z,1002.07
2022-12-29T09:29:44.604Z,1002.08
2022-12-29T09:30:44.588Z,1002.21
2022-12-29T09:31:44.602Z,1002.13
2022-12-29T09:32:45.843Z,1002.13
2022-12-29T09:33:44.576Z,1002.17
2022-12-29T09:34:44.525Z,1002.22
2022-12-29T09:35:44.547Z,1002.14
2022-12-29T09:36:44.471Z,1002.12
2022-12-29T09:37:45.428Z,1002.18
2022-12-29T09:38:44.466Z,1002.11
2022-12-29T09:39:49.101Z,1002.22
2022-12-29T09:40:45.454Z,1002.28
2022-12-29T09:41:44.437Z,1002.24
2022-12-29T09:42:44.418Z,1002.22
2022-12-29T09:43:44.439Z,1002.22
2022-12-29T09:44:44.385Z,1002.25
2022-12-29T09:45:44.370Z,1002.27
2022-12-29T09:46:44.444Z,1002.26
2022-12-29T09:47:44.397Z,1002.25
2022-12-29T09:48:44.532Z,1002.21
2022-12-29T09:49:44.316Z,1002.34
2022-12-29T09:50:44.334Z,1002.32
2022-12-29T09:51:44.336Z,1002.33
2022-12-29T09:52:44.285Z,1002.33
2022-12-29T09:53:44.297Z,1002.30
2022-12-29T09:54:48.221Z,1002.34
2022-12-29T09:55:45.256Z,1002.28
2022-12-29T09:56:44.283Z,1002.40
2022-12-29T09:57:44.261Z,1002.29
2022-12-29T09:58:44.271Z,1002.28
2022-12-29T09:59:44.229Z,1002.27
2022-12-29T10:00:45.840Z,1002.24
2022-12-29T10:01:44.417Z,1002.25
2022-12-29T10:02:44.349Z,1002.39
2022-12-29T10:03:44.180Z,1002.36
2022-12-29T10:04:44.185Z,1002.17
2022-12-29T10:05:44.109Z,1002.35
2022-12-29T10:07:19.387Z,1002.35
2022-12-29T10:07:45.116Z,1002.25
2022-12-29T10:08:44.074Z,1002.26
2022-12-29T10:09:44.092Z,1002.30
2022-12-29T10:10:44.075Z,1002.31
2022-12-29T10:11:44.052Z,1002.18
2022-12-29T10:12:44.087Z,1002.23
2022-12-29T10:13:44.014Z,1002.23
2022-12-29T10:14:44.000Z,1002.28
2022-12-29T10:15:44.030Z,1002.27
2022-12-29T10:16:44.079Z,1002.19
2022-12-29T10:17:43.980Z,1002.28
2022-12-29T10:18:43.981Z,1002.25
2022-12-29T10:19:43.954Z,1002.39
2022-12-29T10:20:44.008Z,1002.18
2022-12-29T10:21:43.932Z,1002.14
2022-12-29T10:22:43.873Z,1002.33
2022-12-29T10:23:43.941Z,1002.23
2022-12-29T10:24:43.842Z,1002.25
2022-12-29T10:25:43.867Z,1002.17
2022-12-29T10:26:43.827Z,1002.22
2022-12-29T10:27:43.852Z,1002.16
2022-12-29T10:28:43.839Z,1002.18
2022-12-29T10:29:43.827Z,1002.17
2022-12-29T10:30:43.773Z,1002.24
2022-12-29T10:31:43.892Z,1002.25
2022-12-29T10:32:43.775Z,1002.26
2022-12-29T10:33:43.809Z,1002.21
2022-12-29T10:34:43.757Z,1002.41
2022-12-29T10:35:43.782Z,1002.32
2022-12-29T10:36:43.721Z,1002.33
2022-12-29T10:37:43.717Z,1002.25
2022-12-29T10:38:43.703Z,1002.39
2022-12-29T10:39:43.699Z,1002.31
2022-12-29T10:40:43.683Z,1002.41
2022-12-29T10:41:43.666Z,1002.45
2022-12-29T10:42:43.624Z,1002.34
2022-12-29T10:43:43.670Z,1002.43
2022-12-29T10:44:43.590Z,1002.43
2022-12-29T10:45:43.629Z,1002.39
2022-12-29T10:46:43.595Z,1002.42
2022-12-29T10:47:43.601Z,1002.44
2022-12-29T10:48:43.578Z,1002.40
2022-12-29T10:49:43.609Z,1002.43
2022-12-29T10:50:43.544Z,1002.32
2022-12-29T10:51:43.513Z,1002.34
2022-12-29T10:52:43.508Z,1002.41
2022-12-29T10:53:43.575Z,1002.44
2022-12-29T10:54:43.493Z,1002.45
2022-12-29T10:55:43.494Z,1002.44
2022-12-29T10:56:43.431Z,1002.44
2022-12-29T10:57:43.439Z,1002.51
2022-12-29T10:58:48.077Z,1002.34
2022-12-29T10:59:44.454Z,1002.37
2022-12-29T11:00:43.402Z,1002.50
2022-12-29T11:01:43.668Z,1002.42
2022-12-29T11:02:43.610Z,1002.49
2022-12-29T11:03:43.371Z,1002.49
2022-12-29T11:04:43.327Z,1002.55
2022-12-29T11:05:43.351Z,1002.49
2022-12-29T11:06:43.328Z,1002.56
2022-12-29T11:07:43.337Z,1002.58
2022-12-29T11:08:43.309Z,1002.55
2022-12-29T11:09:43.694Z,1002.61
2022-12-29T11:10:43.291Z,1002.59
2022-12-29T11:11:43.282Z,1002.57
2022-12-29T11:12:43.237Z,1002.53
2022-12-29T11:13:43.262Z,1002.48
2022-12-29T11:14:43.219Z,1002.66
2022-12-29T11:15:43.194Z,1002.52
2022-12-29T11:16:43.272Z,1002.52
2022-12-29T11:17:43.215Z,1002.61
2022-12-29T11:18:43.201Z,1002.61
2022-12-29T11:19:43.237Z,1002.74
2022-12-29T11:20:43.159Z,1002.72
2022-12-29T11:21:43.547Z,1002.62
2022-12-29T11:22:43.105Z,1002.56
2022-12-29T11:23:43.135Z,1002.64
2022-12-29T11:24:43.095Z,1002.62
2022-12-29T11:25:43.083Z,1002.67
2022-12-29T11:26:43.045Z,1002.75
2022-12-29T11:27:43.072Z,1002.62
2022-12-29T11:28:43.063Z,1002.70
2022-12-29T11:29:43.051Z,1002.64
2022-12-29T11:30:43.088Z,1002.73
2022-12-29T11:31:43.153Z,1002.83
2022-12-29T11:32:42.990Z,1002.65
2022-12-29T11:33:43.010Z,1002.87
2022-12-29T11:34:42.978Z,1002.78
2022-12-29T11:35:42.952Z,1002.90
2022-12-29T11:36:42.939Z,1002.83
2022-12-29T11:37:43.019Z,1002.93
2022-12-29T11:38:42.904Z,1002.93
2022-12-29T11:39:43.034Z,1002.92
2022-12-29T11:40:42.854Z,1002.86
2022-12-29T11:41:42.882Z,1002.79
2022-12-29T11:42:42.868Z,1002.91
2022-12-29T11:43:42.858Z,1002.85
2022-12-29T11:44:42.809Z,1002.89
2022-12-29T11:45:42.927Z,1002.86
2022-12-29T11:46:42.819Z,1002.92
2022-12-29T11:47:42.792Z,1002.81
2022-12-29T11:48:42.895Z,1002.92
2022-12-29T11:49:42.804Z,1002.92
2022-12-29T11:50:42.815Z,1002.91
2022-12-29T11:51:42.739Z,1002.81
2022-12-29T11:52:42.702Z,1002.88
2022-12-29T11:53:42.750Z,1002.89
2022-12-29T11:54:42.815Z,1002.98
2022-12-29T11:55:42.713Z,1003.02
2022-12-29T11:56:42.689Z,1003.02
2022-12-29T11:57:42.649Z,1002.90
2022-12-29T11:58:42.709Z,1003.07
2022-12-29T11:59:42.612Z,1003.02
2022-12-29T12:00:42.634Z,1003.07
2022-12-29T12:01:42.621Z,1003.09
2022-12-29T12:02:43.713Z,1003.10
2022-12-29T12:03:42.817Z,1003.04
2022-12-29T12:04:42.558Z,1003.21
2022-12-29T12:05:42.537Z,1003.10
2022-12-29T12:06:42.539Z,1003.07
2022-12-29T12:07:42.532Z,1003.07
2022-12-29T12:08:42.543Z,1003.24
2022-12-29T12:09:42.506Z,1003.20
2022-12-29T12:10:42.529Z,1003.11
2022-12-29T12:11:42.458Z,1003.18